Wellston, Michigan
Current Conditions -  °F | °C
As of 8:15 AM on Friday 28 Nov 2014 (Local Time) from KMBL Reporting Station
Broken Clouds Broken Clouds  
Wind Chill: 11°   Ceiling: 3300
Heat Index: 19°   Visibility: 10mi
Dew Point: 14°   Wind: 6mph
Humidity: 80%   Direction: 170°S
Pressure: 30.25"   Gusts: NA
Location:  44.22°N, 85.96°W
Report Text: KMBL 281315Z AUTO 17005KT 10SM FEW027 BKN033 M07/M10 A3025 RMK AO1
Loading
Personal Weather Stations






























Interactive Weather Map New forecast layout! Learn more

10-Day Weather Forecast

Advertisements
Track Severe Weather on mobile